Besiktas Bosphorus — TCOG3 — position and weather

sailwx.info

Track history (hours):
 
Tides and Currents Weather Stations Pressure Air Temp Water Temp Dewpoint Dewpoint Depression Visibility Wind Speed Wind Dir Waves Ship Positions

Besiktas Bosphorus

Last reported at 2014-Oct-25 13:33 UTC. Time now 2014-Oct-25 13:36 UTC.
Position N 44°28' E 037°54'.

Length 274 m; draft 8.6 m.

Type: Tanker. MMSI: 271000817.

Date/timePositionNaut miles runAvg speedWind from/ knotsBaromVisibWave heightAir tempDewpointWater temp
2014-Oct-25 13:33N 44°28' E 037°54'1 0.9
2014-Oct-25 12:34N 44°29' E 037°55'3 2.7
2014-Oct-25 11:34N 44°27' E 037°53'3 2.6
2014-Oct-25 10:34N 44°25' E 037°51'1 1.1
2014-Oct-25 09:33N 44°26' E 037°51'2 2.3
2014-Oct-25 08:34N 44°27' E 037°53'2 2.2
2014-Oct-25 07:34N 44°29' E 037°55'1 0.6
2014-Oct-25 06:34N 44°29' E 037°56'3 3.3
2014-Oct-25 05:34N 44°27' E 037°53'4 4.1
2014-Oct-25 04:34N 44°25' E 037°47'1 1.3
2014-Oct-25 03:34N 44°26' E 037°49'1 1.2
2014-Oct-25 02:34N 44°27' E 037°50'1 1.5
2014-Oct-25 01:33N 44°27' E 037°52'2 1.7
2014-Oct-25 00:34N 44°28' E 037°54'1 1.0
2014-Oct-24 23:34N 44°27' E 037°53'4 3.9
2014-Oct-24 22:33N 44°25' E 037°49'1 1.4
2014-Oct-24 21:34N 44°26' E 037°50'1 1.5
2014-Oct-24 20:33N 44°27' E 037°52'2 1.5
2014-Oct-24 19:33N 44°27' E 037°54'1 0.7
2014-Oct-24 18:34N 44°28' E 037°55'5 4.7
2014-Oct-24 17:34N 44°24' E 037°50'2 1.5
2014-Oct-24 16:33N 44°25' E 037°52'1 1.4
2014-Oct-24 15:33N 44°26' E 037°53'1 1.3
2014-Oct-24 14:34N 44°27' E 037°54'2 1.9
2014-Oct-24 13:34N 44°27' E 037°52'3 3.3
2014-Oct-24 12:34N 44°28' E 037°47'1 1.0
2014-Oct-24 11:34N 44°29' E 037°48'1 0.7
2014-Oct-24 10:33N 44°29' E 037°49'1 1.5
2014-Oct-24 09:34N 44°28' E 037°51'2 1.9
2014-Oct-24 08:34N 44°28' E 037°54'3 2.5
2014-Oct-24 07:34N 44°30' E 037°52'1 0.9
2014-Oct-24 06:34N 44°30' E 037°53'7 3.6
2014-Oct-24 04:34N 44°26' E 037°44'1 1.2
2014-Oct-24 03:34N 44°27' E 037°44'1 1.5
2014-Oct-24 02:34N 44°28' E 037°45'2 1.6
2014-Oct-24 01:34N 44°30' E 037°46'1 1.1
2014-Oct-24 00:33N 44°29' E 037°46'4 3.6
2014-Oct-23 23:33N 44°25' E 037°47'2 1.4
2014-Oct-23 22:17N 44°25' E 037°50'4 5.1
2014-Oct-23 21:34N 44°29' E 037°49'1111.4
2014-Oct-23 20:33N 44°34' E 037°34'5 4.1
2014-Oct-23 19:21N 44°33' E 037°27'1 1.5
2014-Oct-23 18:33N 44°34' E 037°29'2 1.6
2014-Oct-23 17:33N 44°33' E 037°31'1 1.4
2014-Oct-23 16:33N 44°33' E 037°33'4 4.0
2014-Oct-23 15:34N 44°34' E 037°38'4 4.3
2014-Oct-23 14:33N 44°38' E 037°42'1 0.7
2014-Oct-23 13:33N 44°37' E 037°43'1 1.5
2014-Oct-23 12:34N 44°36' E 037°41'3 2.6
2014-Oct-23 11:34N 44°35' E 037°38'9 8.9
2014-Oct-23 10:33N 44°30' E 037°28'1 0.6
2014-Oct-23 09:33N 44°30' E 037°28'1 1.0
2014-Oct-23 08:33N 44°30' E 037°30'1 0.8
2014-Oct-23 07:33N 44°29' E 037°31'2 1.5
2014-Oct-23 06:33N 44°30' E 037°29'5 5.1
2014-Oct-23 05:33N 44°33' E 037°23'5 5.0
2014-Oct-23 04:33N 44°36' E 037°17'3 1.2
2014-Oct-23 02:18N 44°36' E 037°21'7 1.5
2014-Oct-22 21:21N 44°33' E 037°30'1 1.7
2014-Oct-22 20:33N 44°33' E 037°32'2 1.6
2014-Oct-22 19:33N 44°33' E 037°34'3 3.5
2014-Oct-22 18:34N 44°36' E 037°37'1 1.4
2014-Oct-22 17:33N 44°34' E 037°38'2 1.9
2014-Oct-22 16:34N 44°35' E 037°35'2 0.8
2014-Oct-22 14:34N 44°37' E 037°35'2 1.7
2014-Oct-22 13:34N 44°35' E 037°36'1 1.3
2014-Oct-22 12:34N 44°34' E 037°37'1 1.1
2014-Oct-22 11:33N 44°34' E 037°39'2 1.6
2014-Oct-22 10:33N 44°35' E 037°39'3 3.1
2014-Oct-22 09:33N 44°32' E 037°39'7 7.2
2014-Oct-22 08:33N 44°26' E 037°33'9 8.7
2014-Oct-22 07:33N 44°22' E 037°22'10 9.8
2014-Oct-22 06:31N 44°18' E 037°09'37310.1
2014-Oct-20 17:33N 41°27' E 029°37'11 8.7
2014-Oct-20 16:15N 41°21' E 029°24'710.7
2014-Oct-20 15:33N 41°17' E 029°16'2210.8
2014-Oct-20 13:33N 40°59' E 028°60'6 5.7
2014-Oct-20 12:33N 40°54' E 028°55'4 4.0
2014-Oct-20 11:32N 40°56' E 028°50'0 0.1
2014-Oct-20 09:17N 40°56' E 028°50'0 0.0
2014-Oct-20 04:26N 40°56' E 028°50'0 0.0
2014-Oct-20 02:32N 40°56' E 028°50'0 0.1
2014-Oct-20 00:26N 40°56' E 028°50'0 0.0
2014-Oct-19 22:26N 40°56' E 028°50'0 0.0
2014-Oct-19 21:20N 40°56' E 028°50'3 3.8
2014-Oct-19 20:32N 40°53' E 028°51'265 6.5
2014-Oct-18 03:33N 37°54' E 024°37'8 8.4
2014-Oct-18 02:33N 37°46' E 024°34'8 7.8
2014-Oct-18 01:33N 37°39' E 024°31'8 8.2
2014-Oct-18 00:33N 37°32' E 024°25'11 8.6
2014-Oct-17 23:14N 37°23' E 024°16'7 8.3
2014-Oct-17 22:25N 37°17' E 024°11'8 8.6
2014-Oct-17 21:33N 37°11' E 024°05'16 8.2
2014-Oct-17 19:33N 36°58' E 023°53'8 8.1
2014-Oct-17 18:32N 36°52' E 023°47'8 8.5
2014-Oct-17 17:33N 36°45' E 023°40'11 8.5
2014-Oct-17 16:14N 36°37' E 023°31'6 8.5
2014-Oct-17 15:33N 36°32' E 023°27'9 8.7
2014-Oct-17 14:33N 36°25' E 023°21'9 9.5
2014-Oct-17 13:33N 36°22' E 023°09'1413.8
2014-Oct-17 12:33N 36°24' E 022°52'95 9.4
2014-Oct-17 02:22N 36°19' E 020°54'9 9.4
2014-Oct-17 01:25N 36°20' E 020°43'11 9.4
2014-Oct-17 00:15N 36°20' E 020°30'263 9.3
2014-Oct-15 20:03N 36°24' E 015°03'15 9.3
2014-Oct-15 18:29N 36°23' E 014°45'9 9.2
2014-Oct-15 17:33N 36°24' E 014°35'9 9.2
2014-Oct-15 16:33N 36°27' E 014°24'9 9.1
2014-Oct-15 15:33N 36°29' E 014°13'10 9.2
2014-Oct-15 14:30N 36°32' E 014°01'1212.2
2014-Oct-15 13:33N 36°35' E 013°47'  
Track history (hours):
 
Tides and Currents Weather Stations Pressure Air Temp Water Temp Dewpoint Dewpoint Depression Visibility Wind Speed Wind Dir Waves Ship Positions

Besiktas Bosphorus

Last reported at 2014-Oct-25 13:33 UTC. Time now 2014-Oct-25 13:36 UTC.
Position N 44°28' E 037°54'.

Length 274 m; draft 8.6 m.

Type: Tanker. MMSI: 271000817.

Date/timePositionNaut miles runAvg speedWind from/ knotsBaromVisibWave heightAir tempDewpointWater temp
2014-Oct-25 13:33N 44°28' E 037°54'1 0.9
2014-Oct-25 12:34N 44°29' E 037°55'3 2.7
2014-Oct-25 11:34N 44°27' E 037°53'3 2.6
2014-Oct-25 10:34N 44°25' E 037°51'1 1.1
2014-Oct-25 09:33N 44°26' E 037°51'2 2.3
2014-Oct-25 08:34N 44°27' E 037°53'2 2.2
2014-Oct-25 07:34N 44°29' E 037°55'1 0.6
2014-Oct-25 06:34N 44°29' E 037°56'3 3.3
2014-Oct-25 05:34N 44°27' E 037°53'4 4.1
2014-Oct-25 04:34N 44°25' E 037°47'1 1.3
2014-Oct-25 03:34N 44°26' E 037°49'1 1.2
2014-Oct-25 02:34N 44°27' E 037°50'1 1.5
2014-Oct-25 01:33N 44°27' E 037°52'2 1.7
2014-Oct-25 00:34N 44°28' E 037°54'1 1.0
2014-Oct-24 23:34N 44°27' E 037°53'4 3.9
2014-Oct-24 22:33N 44°25' E 037°49'1 1.4
2014-Oct-24 21:34N 44°26' E 037°50'1 1.5
2014-Oct-24 20:33N 44°27' E 037°52'2 1.5
2014-Oct-24 19:33N 44°27' E 037°54'1 0.7
2014-Oct-24 18:34N 44°28' E 037°55'5 4.7
2014-Oct-24 17:34N 44°24' E 037°50'2 1.5
2014-Oct-24 16:33N 44°25' E 037°52'1 1.4
2014-Oct-24 15:33N 44°26' E 037°53'1 1.3
2014-Oct-24 14:34N 44°27' E 037°54'2 1.9
2014-Oct-24 13:34N 44°27' E 037°52'3 3.3
2014-Oct-24 12:34N 44°28' E 037°47'1 1.0
2014-Oct-24 11:34N 44°29' E 037°48'1 0.7
2014-Oct-24 10:33N 44°29' E 037°49'1 1.5
2014-Oct-24 09:34N 44°28' E 037°51'2 1.9
2014-Oct-24 08:34N 44°28' E 037°54'3 2.5
2014-Oct-24 07:34N 44°30' E 037°52'1 0.9
2014-Oct-24 06:34N 44°30' E 037°53'7 3.6
2014-Oct-24 04:34N 44°26' E 037°44'1 1.2
2014-Oct-24 03:34N 44°27' E 037°44'1 1.5
2014-Oct-24 02:34N 44°28' E 037°45'2 1.6
2014-Oct-24 01:34N 44°30' E 037°46'1 1.1
2014-Oct-24 00:33N 44°29' E 037°46'4 3.6
2014-Oct-23 23:33N 44°25' E 037°47'2 1.4
2014-Oct-23 22:17N 44°25' E 037°50'4 5.1
2014-Oct-23 21:34N 44°29' E 037°49'1111.4
2014-Oct-23 20:33N 44°34' E 037°34'5 4.1
2014-Oct-23 19:21N 44°33' E 037°27'1 1.5
2014-Oct-23 18:33N 44°34' E 037°29'2 1.6
2014-Oct-23 17:33N 44°33' E 037°31'1 1.4
2014-Oct-23 16:33N 44°33' E 037°33'4 4.0
2014-Oct-23 15:34N 44°34' E 037°38'4 4.3
2014-Oct-23 14:33N 44°38' E 037°42'1 0.7
2014-Oct-23 13:33N 44°37' E 037°43'1 1.5
2014-Oct-23 12:34N 44°36' E 037°41'3 2.6
2014-Oct-23 11:34N 44°35' E 037°38'9 8.9
2014-Oct-23 10:33N 44°30' E 037°28'1 0.6
2014-Oct-23 09:33N 44°30' E 037°28'1 1.0
2014-Oct-23 08:33N 44°30' E 037°30'1 0.8
2014-Oct-23 07:33N 44°29' E 037°31'2 1.5
2014-Oct-23 06:33N 44°30' E 037°29'5 5.1
2014-Oct-23 05:33N 44°33' E 037°23'5 5.0
2014-Oct-23 04:33N 44°36' E 037°17'3 1.2
2014-Oct-23 02:18N 44°36' E 037°21'7 1.5
2014-Oct-22 21:21N 44°33' E 037°30'1 1.7
2014-Oct-22 20:33N 44°33' E 037°32'2 1.6
2014-Oct-22 19:33N 44°33' E 037°34'3 3.5
2014-Oct-22 18:34N 44°36' E 037°37'1 1.4
2014-Oct-22 17:33N 44°34' E 037°38'2 1.9
2014-Oct-22 16:34N 44°35' E 037°35'2 0.8
2014-Oct-22 14:34N 44°37' E 037°35'2 1.7
2014-Oct-22 13:34N 44°35' E 037°36'1 1.3
2014-Oct-22 12:34N 44°34' E 037°37'1 1.1
2014-Oct-22 11:33N 44°34' E 037°39'2 1.6
2014-Oct-22 10:33N 44°35' E 037°39'3 3.1
2014-Oct-22 09:33N 44°32' E 037°39'7 7.2
2014-Oct-22 08:33N 44°26' E 037°33'9 8.7
2014-Oct-22 07:33N 44°22' E 037°22'10 9.8
2014-Oct-22 06:31N 44°18' E 037°09'37310.1
2014-Oct-20 17:33N 41°27' E 029°37'11 8.7
2014-Oct-20 16:15N 41°21' E 029°24'710.7
2014-Oct-20 15:33N 41°17' E 029°16'2210.8
2014-Oct-20 13:33N 40°59' E 028°60'6 5.7
2014-Oct-20 12:33N 40°54' E 028°55'4 4.0
2014-Oct-20 11:32N 40°56' E 028°50'0 0.1
2014-Oct-20 09:17N 40°56' E 028°50'0 0.0
2014-Oct-20 04:26N 40°56' E 028°50'0 0.0
2014-Oct-20 02:32N 40°56' E 028°50'0 0.1
2014-Oct-20 00:26N 40°56' E 028°50'0 0.0
2014-Oct-19 22:26N 40°56' E 028°50'0 0.0
2014-Oct-19 21:20N 40°56' E 028°50'3 3.8
2014-Oct-19 20:32N 40°53' E 028°51'265 6.5
2014-Oct-18 03:33N 37°54' E 024°37'8 8.4
2014-Oct-18 02:33N 37°46' E 024°34'8 7.8
2014-Oct-18 01:33N 37°39' E 024°31'8 8.2
2014-Oct-18 00:33N 37°32' E 024°25'11 8.6
2014-Oct-17 23:14N 37°23' E 024°16'7 8.3
2014-Oct-17 22:25N 37°17' E 024°11'8 8.6
2014-Oct-17 21:33N 37°11' E 024°05'16 8.2
2014-Oct-17 19:33N 36°58' E 023°53'8 8.1
2014-Oct-17 18:32N 36°52' E 023°47'8 8.5
2014-Oct-17 17:33N 36°45' E 023°40'11 8.5
2014-Oct-17 16:14N 36°37' E 023°31'6 8.5
2014-Oct-17 15:33N 36°32' E 023°27'9 8.7
2014-Oct-17 14:33N 36°25' E 023°21'9 9.5
2014-Oct-17 13:33N 36°22' E 023°09'1413.8
2014-Oct-17 12:33N 36°24' E 022°52'95 9.4
2014-Oct-17 02:22N 36°19' E 020°54'9 9.4
2014-Oct-17 01:25N 36°20' E 020°43'11 9.4
2014-Oct-17 00:15N 36°20' E 020°30'263 9.3
2014-Oct-15 20:03N 36°24' E 015°03'15 9.3
2014-Oct-15 18:29N 36°23' E 014°45'9 9.2
2014-Oct-15 17:33N 36°24' E 014°35'9 9.2
2014-Oct-15 16:33N 36°27' E 014°24'9 9.1
2014-Oct-15 15:33N 36°29' E 014°13'10 9.2
2014-Oct-15 14:30N 36°32' E 014°01'1212.2
2014-Oct-15 13:33N 36°35' E 013°47'  

Dump ship's entire track history